Weather at Clear Moore Corp. Kenneth Moore Heliport

Public forecast

Using degrees Fahrenheit for public forecast. Weather courtesy of forecast.io.

Closest aviation weather report (METAR) to Clear Moore Corp. Kenneth Moore Heliport

Closest report is Newport News Williamsburg International Airport, 2.7 nm (4.9 km) SSW. Retrieved 2020/10/01 17:54 UTC (54 minutes ago):

KPHF 011754Z 25008KT 10SM CLR 26/14 A2994 RMK AO2 SLP139 60000 T02610139 10261 20178 58008

Closest aviation forecast (TAF) to Clear Moore Corp. Kenneth Moore Heliport

Closest forecast is Newport News Williamsburg International Airport, 2.7 nm (4.9 km) SSW. Retrieved 2020/10/01 18:36 UTC (12 minutes ago):

TAF KPHF 011733Z 0118/0218 23006KT P6SM SKC FM012100 19007KT P6SM SKC FM020400 24006KT P6SM SCT150 FM020600 34010KT P6SM BKN040 FM020900 36011G18KT P6SM BKN015 FM021200 35011KT P6SM BKN050 FM021700 35009KT P6SM SCT100